Terminal Aerodrome Forecast
Issued by NWS

Home | Current Version | Previous Version | Text Only | Print | Product List | Glossary On
Versions: 1 2 3 4 5 6 7 8 9 10 11 12 13
000
FTAK31 PAJN 032322
TAFASI
TAF
PASI 032322Z 0400/0424 28011KT P6SM SCT040 SCT080
     FM040400 31008KT P6SM BKN100
     FM040800 VRB03KT P6SM SCT050 BKN100
     FM041200 28008KT P6SM BKN150
     FM041800 28006KT P6SM BKN100=

USA.gov is the U.S. government's official web portal to all federal, state and local government web resources and services.